Time;durP1;ratioP1;P1;durP2;ratioP2;P2;SDS_P1;SDS_P2;PMS_P1;PMS_P2;Temp;Humidity;BMP_temperature;BMP_pressure;BME280_temperature;BME280_humidity;BME280_pressure;Samples;Min_cycle;Max_cycle;Signal;HPM_P1;HPM_P2
2021/04/14 00:02:08;;;;;;;9.55;4.40;;;;;;;;;;5090597;28;20032;-72
2021/04/14 00:04:34;;;;;;;10.30;4.25;;;;;;;;;;5090195;28;20020;-71
2021/04/14 00:07:00;;;;;;;12.52;4.38;;;;;;;;;;5087361;28;20054;-72
2021/04/14 00:09:27;;;;;;;8.57;4.63;;;;;;;;;;5088586;28;20058;-72
2021/04/14 00:11:53;;;;;;;9.23;4.50;;;;;;;;;;5083642;28;20038;-72
2021/04/14 00:14:20;;;;;;;9.57;4.55;;;;;;;;;;5084418;28;20028;-71
2021/04/14 00:16:46;;;;;;;11.38;4.93;;;;;;;;;;5088445;28;20028;-72
2021/04/14 00:19:12;;;;;;;13.77;5.45;;;;;;;;;;5089670;28;20031;-72
2021/04/14 00:21:38;;;;;;;12.27;5.25;;;;;;;;;;5091871;28;20024;-72
2021/04/14 00:24:04;;;;;;;15.55;5.00;;;;;;;;;;5090595;28;20028;-72
2021/04/14 00:26:30;;;;;;;9.93;4.70;;;;;;;;;;5089461;28;20051;-72
2021/04/14 00:28:56;;;;;;;12.07;4.88;;;;;;;;;;5087089;28;20032;-72
2021/04/14 00:31:35;;;;;;;10.75;4.68;;;;;;;;;;5089649;28;20035;-72
2021/04/14 00:34:03;;;;;;;8.95;4.30;;;;;;;;;;5090173;28;20402;-72
2021/04/14 00:36:29;;;;;;;10.52;4.63;;;;;;;;;;5086884;28;20028;-72
2021/04/14 00:38:55;;;;;;;8.27;4.35;;;;;;;;;;5087300;28;20039;-71
2021/04/14 00:41:22;;;;;;;12.15;4.57;;;;;;;;;;5088547;28;20032;-72
2021/04/14 00:43:48;;;;;;;10.25;4.95;;;;;;;;;;5088829;28;20405;-72
2021/04/14 00:46:14;;;;;;;11.93;4.90;;;;;;;;;;5089868;28;20624;-71
2021/04/14 00:48:40;;;;;;;8.82;4.10;;;;;;;;;;5080476;28;20028;-72
2021/04/14 00:51:08;;;;;;;10.35;4.50;;;;;;;;;;5088157;28;20032;-72
2021/04/14 00:53:34;;;;;;;13.20;5.45;;;;;;;;;;5088655;28;20668;-71
2021/04/14 00:56:00;;;;;;;10.55;5.32;;;;;;;;;;5090278;28;20441;-71
2021/04/14 00:58:26;;;;;;;9.85;4.70;;;;;;;;;;5086693;28;20016;-71
2021/04/14 01:00:53;;;;;;;12.30;4.68;;;;;;;;;;5088307;28;20493;-71
2021/04/14 01:03:21;;;;;;;11.23;4.80;;;;;;;;;;5086238;28;20028;-71
2021/04/14 01:05:48;;;;;;;8.98;4.90;;;;;;;;;;5087277;28;20028;-71
2021/04/14 01:08:14;;;;;;;15.82;5.22;;;;;;;;;;5085245;28;20032;-72
2021/04/14 01:10:40;;;;;;;11.32;5.10;;;;;;;;;;5085159;28;20064;-72
2021/04/14 01:13:07;;;;;;;13.00;5.55;;;;;;;;;;5085636;28;20046;-71
2021/04/14 01:15:34;;;;;;;9.32;5.05;;;;;;;;;;5079064;28;20089;-71
2021/04/14 01:18:00;;;;;;;9.82;5.50;;;;;;;;;;5086262;28;20043;-71
2021/04/14 01:20:27;;;;;;;10.00;5.50;;;;;;;;;;5094323;28;20016;-71
2021/04/14 01:22:53;;;;;;;9.95;5.03;;;;;;;;;;5090270;28;20032;-71
2021/04/14 01:25:20;;;;;;;11.60;4.82;;;;;;;;;;5088955;28;20028;-71
2021/04/14 01:27:46;;;;;;;10.82;5.35;;;;;;;;;;5087479;28;20032;-71
2021/04/14 01:30:33;;;;;;;10.90;5.68;;;;;;;;;;5085368;28;20074;-71
2021/04/14 01:32:59;;;;;;;11.38;5.05;;;;;;;;;;5074296;28;20039;-71
2021/04/14 01:35:27;;;;;;;11.32;5.50;;;;;;;;;;5089071;28;20031;-71
2021/04/14 01:37:53;;;;;;;9.85;4.65;;;;;;;;;;5092323;28;20028;-71
2021/04/14 01:40:21;;;;;;;9.60;4.72;;;;;;;;;;5085919;28;20044;-72
2021/04/14 01:42:47;;;;;;;9.98;5.43;;;;;;;;;;5087064;28;20024;-72
2021/04/14 01:45:15;;;;;;;12.48;4.85;;;;;;;;;;5082515;28;20024;-71
2021/04/14 01:47:41;;;;;;;9.68;5.25;;;;;;;;;;5081237;28;20029;-71
2021/04/14 01:50:07;;;;;;;11.68;4.72;;;;;;;;;;5076183;28;20025;-71
2021/04/14 01:52:33;;;;;;;9.43;4.78;;;;;;;;;;5086788;28;20122;-71
2021/04/14 01:54:59;;;;;;;9.68;4.85;;;;;;;;;;5082943;28;20032;-71
2021/04/14 01:57:26;;;;;;;10.10;5.05;;;;;;;;;;5083902;28;20078;-72
2021/04/14 01:59:52;;;;;;;10.27;5.10;;;;;;;;;;5085600;28;20020;-71
2021/04/14 02:02:18;;;;;;;9.90;4.78;;;;;;;;;;5073710;28;20028;-71
2021/04/14 02:04:44;;;;;;;9.95;4.32;;;;;;;;;;5087656;28;20028;-71
2021/04/14 02:07:10;;;;;;;10.27;4.90;;;;;;;;;;5084754;28;20046;-71
2021/04/14 02:09:37;;;;;;;13.57;5.10;;;;;;;;;;5087607;28;20036;-71
2021/04/14 02:12:03;;;;;;;11.00;5.55;;;;;;;;;;5088614;28;20024;-71
2021/04/14 02:14:29;;;;;;;11.68;5.35;;;;;;;;;;5090441;28;20814;-71
2021/04/14 02:16:56;;;;;;;12.10;5.47;;;;;;;;;;5086409;28;20044;-71
2021/04/14 02:19:22;;;;;;;12.65;5.43;;;;;;;;;;5094725;28;20031;-71
2021/04/14 02:21:48;;;;;;;10.63;5.10;;;;;;;;;;5086213;28;20036;-71
2021/04/14 02:24:14;;;;;;;9.45;4.82;;;;;;;;;;5078783;28;20090;-71
2021/04/14 02:26:40;;;;;;;12.05;4.75;;;;;;;;;;5086139;28;20490;-71
2021/04/14 02:29:07;;;;;;;10.73;4.38;;;;;;;;;;5086621;28;20728;-71
2021/04/14 02:31:33;;;;;;;14.25;6.07;;;;;;;;;;5087966;28;20032;-71
2021/04/14 02:34:17;;;;;;;15.45;6.28;;;;;;;;;;5087610;28;20047;-71
2021/04/14 02:36:43;;;;;;;12.45;5.05;;;;;;;;;;5090602;28;20063;-71
2021/04/14 02:39:10;;;;;;;12.18;5.40;;;;;;;;;;5093733;28;20047;-71
2021/04/14 02:41:36;;;;;;;11.68;5.53;;;;;;;;;;5092057;28;20044;-71
2021/04/14 02:44:03;;;;;;;9.32;5.10;;;;;;;;;;5086435;28;20036;-71
2021/04/14 02:46:29;;;;;;;9.75;5.45;;;;;;;;;;5090204;28;20032;-71
2021/04/14 02:48:56;;;;;;;10.38;5.32;;;;;;;;;;5084565;28;20170;-71
2021/04/14 02:51:22;;;;;;;11.52;5.63;;;;;;;;;;5088510;28;20028;-71
2021/04/14 02:53:48;;;;;;;11.05;5.68;;;;;;;;;;5088818;28;20081;-71
2021/04/14 02:56:14;;;;;;;11.05;5.80;;;;;;;;;;5080340;28;20028;-71
2021/04/14 02:58:40;;;;;;;13.00;5.25;;;;;;;;;;5088171;28;20085;-72
2021/04/14 03:01:06;;;;;;;11.65;5.78;;;;;;;;;;5083875;28;20024;-71
2021/04/14 03:03:32;;;;;;;10.57;5.97;;;;;;;;;;5087516;28;20064;-71
2021/04/14 03:05:58;;;;;;;10.30;5.13;;;;;;;;;;5080127;28;20032;-71
2021/04/14 03:08:25;;;;;;;12.23;6.53;;;;;;;;;;5091449;28;20016;-71
2021/04/14 03:10:51;;;;;;;10.98;5.60;;;;;;;;;;5086236;28;20078;-71
2021/04/14 03:13:17;;;;;;;13.15;5.47;;;;;;;;;;5091887;28;20028;-71
2021/04/14 03:15:44;;;;;;;12.63;5.40;;;;;;;;;;5093041;28;20040;-71
2021/04/14 03:18:14;;;;;;;12.48;5.95;;;;;;;;;;5080413;28;20131;-71
2021/04/14 03:20:42;;;;;;;12.70;5.97;;;;;;;;;;5091974;28;20020;-71
2021/04/14 03:23:09;;;;;;;15.40;6.13;;;;;;;;;;5089003;28;20127;-71
2021/04/14 03:25:35;;;;;;;14.50;7.03;;;;;;;;;;5081259;28;20399;-71
2021/04/14 03:28:02;;;;;;;28.02;10.90;;;;;;;;;;5084860;28;20568;-71
2021/04/14 03:30:28;;;;;;;38.33;13.75;;;;;;;;;;5081328;28;20167;-71
2021/04/14 03:32:54;;;;;;;47.80;18.73;;;;;;;;;;5088616;28;20044;-71
2021/04/14 03:35:21;;;;;;;45.05;19.33;;;;;;;;;;5081541;28;20079;-71
2021/04/14 03:37:47;;;;;;;50.45;19.52;;;;;;;;;;5090599;28;20043;-71
2021/04/14 03:40:14;;;;;;;53.78;19.90;;;;;;;;;;5090503;28;20032;-71
2021/04/14 03:42:40;;;;;;;47.88;18.15;;;;;;;;;;5091343;28;20082;-71
2021/04/14 03:45:12;;;;;;;42.97;18.08;;;;;;;;;;5092528;28;20051;-71
2021/04/14 03:47:39;;;;;;;47.50;17.40;;;;;;;;;;5084615;28;20027;-71
2021/04/14 03:50:06;;;;;;;41.00;18.25;;;;;;;;;;5085049;28;20032;-70
2021/04/14 03:52:33;;;;;;;42.50;17.52;;;;;;;;;;5084412;28;20032;-71
2021/04/14 03:54:59;;;;;;;36.13;15.57;;;;;;;;;;5090543;28;20100;-71
2021/04/14 03:57:25;;;;;;;28.27;12.70;;;;;;;;;;5090488;28;20099;-71
2021/04/14 03:59:51;;;;;;;23.90;10.43;;;;;;;;;;5087362;28;20020;-71
2021/04/14 04:02:17;;;;;;;19.88;9.52;;;;;;;;;;5090584;28;20460;-71
2021/04/14 04:04:43;;;;;;;23.48;9.43;;;;;;;;;;5090241;28;20032;-71
2021/04/14 04:07:09;;;;;;;23.67;10.40;;;;;;;;;;5085738;28;20098;-71
2021/04/14 04:09:35;;;;;;;19.92;9.15;;;;;;;;;;5089903;28;20585;-71
2021/04/14 04:12:05;;;;;;;22.23;9.40;;;;;;;;;;5084270;28;20047;-71
2021/04/14 04:14:33;;;;;;;21.38;9.20;;;;;;;;;;5090391;28;20261;-71
2021/04/14 04:16:59;;;;;;;22.70;9.43;;;;;;;;;;5072900;28;20119;-71
2021/04/14 04:19:26;;;;;;;16.20;8.63;;;;;;;;;;5097366;28;20116;-71
2021/04/14 04:21:52;;;;;;;19.38;8.38;;;;;;;;;;5076906;28;20107;-71
2021/04/14 04:24:18;;;;;;;14.93;7.63;;;;;;;;;;5090173;28;20024;-71
2021/04/14 04:26:44;;;;;;;17.08;8.80;;;;;;;;;;5078664;28;20089;-71
2021/04/14 04:29:10;;;;;;;17.10;8.68;;;;;;;;;;5088118;28;20004;-71
2021/04/14 04:31:36;;;;;;;21.00;9.38;;;;;;;;;;5084249;28;20028;-71
2021/04/14 04:34:02;;;;;;;18.10;9.43;;;;;;;;;;5086890;28;20107;-71
2021/04/14 04:36:28;;;;;;;19.77;8.95;;;;;;;;;;5088784;28;20032;-71
2021/04/14 04:38:54;;;;;;;16.23;7.82;;;;;;;;;;5092336;28;20024;-71
2021/04/14 04:41:20;;;;;;;14.85;7.88;;;;;;;;;;5083434;28;20032;-71
2021/04/14 04:43:46;;;;;;;15.95;8.02;;;;;;;;;;5079477;28;20033;-71
2021/04/14 04:46:12;;;;;;;14.90;6.80;;;;;;;;;;5084252;28;20032;-70
2021/04/14 04:48:38;;;;;;;14.25;6.97;;;;;;;;;;5086823;28;20020;-71
2021/04/14 04:51:04;;;;;;;17.02;7.53;;;;;;;;;;5085711;28;20019;-70
2021/04/14 04:53:31;;;;;;;15.40;7.25;;;;;;;;;;5086116;28;20043;-71
2021/04/14 04:55:57;;;;;;;15.23;7.15;;;;;;;;;;5090721;28;20052;-71
2021/04/14 04:58:25;;;;;;;15.27;6.47;;;;;;;;;;5089826;28;20059;-72
2021/04/14 05:00:51;;;;;;;12.23;6.80;;;;;;;;;;5084022;28;20025;-71
2021/04/14 05:03:18;;;;;;;15.15;7.22;;;;;;;;;;5083153;28;20505;-71
2021/04/14 05:05:44;;;;;;;12.10;6.72;;;;;;;;;;5088479;28;20028;-71
2021/04/14 05:08:11;;;;;;;14.57;6.78;;;;;;;;;;5088666;28;20040;-70
2021/04/14 05:10:37;;;;;;;14.02;8.07;;;;;;;;;;5084786;28;20024;-71
2021/04/14 05:13:04;;;;;;;14.13;6.85;;;;;;;;;;5087914;28;20054;-71
2021/04/14 05:15:32;;;;;;;11.98;7.10;;;;;;;;;;5086964;28;20024;-70
2021/04/14 05:17:59;;;;;;;13.18;7.10;;;;;;;;;;5088198;28;20126;-71
2021/04/14 05:20:25;;;;;;;13.88;7.00;;;;;;;;;;5082004;28;20048;-71
2021/04/14 05:22:51;;;;;;;13.57;7.07;;;;;;;;;;5086171;28;20020;-70
2021/04/14 05:25:20;;;;;;;14.05;7.38;;;;;;;;;;5085837;28;20383;-70
2021/04/14 05:27:46;;;;;;;13.75;7.38;;;;;;;;;;5087162;28;20024;-71
2021/04/14 05:30:13;;;;;;;12.77;7.10;;;;;;;;;;5088044;28;20039;-71
2021/04/14 05:32:39;;;;;;;13.98;7.20;;;;;;;;;;5084295;28;20144;-71
2021/04/14 05:35:05;;;;;;;18.27;7.22;;;;;;;;;;5070642;28;20032;-71
2021/04/14 05:37:31;;;;;;;15.90;7.22;;;;;;;;;;5089347;28;20023;-71
2021/04/14 05:39:58;;;;;;;14.27;7.20;;;;;;;;;;5088827;28;20383;-71
2021/04/14 05:42:24;;;;;;;13.43;7.60;;;;;;;;;;5080835;28;20016;-71
2021/04/14 05:44:50;;;;;;;14.98;7.65;;;;;;;;;;5086654;28;20036;-71
2021/04/14 05:47:16;;;;;;;14.32;7.32;;;;;;;;;;5080385;28;20036;-71
2021/04/14 05:49:42;;;;;;;14.65;7.50;;;;;;;;;;5082685;28;20077;-71
2021/04/14 05:52:09;;;;;;;13.77;7.80;;;;;;;;;;5088198;28;20032;-71
2021/04/14 05:54:35;;;;;;;17.50;7.57;;;;;;;;;;5088805;28;20027;-71
2021/04/14 05:57:01;;;;;;;13.50;7.75;;;;;;;;;;5089333;28;20028;-71
2021/04/14 05:59:27;;;;;;;13.65;8.00;;;;;;;;;;5078697;28;20073;-71
2021/04/14 06:01:53;;;;;;;17.52;9.55;;;;;;;;;;5083080;28;20558;-71
2021/04/14 06:04:19;;;;;;;26.70;12.50;;;;;;;;;;5078871;28;20104;-71
2021/04/14 06:06:45;;;;;;;33.22;16.05;;;;;;;;;;5086602;28;20046;-71
2021/04/14 06:09:11;;;;;;;34.53;14.57;;;;;;;;;;5088540;28;20058;-72
2021/04/14 06:11:38;;;;;;;25.98;12.00;;;;;;;;;;5090339;28;20038;-72
2021/04/14 06:14:05;;;;;;;25.00;13.43;;;;;;;;;;5074063;28;20108;-72
2021/04/14 06:16:31;;;;;;;40.35;20.40;;;;;;;;;;5093128;28;20065;-71
2021/04/14 06:18:57;;;;;;;50.75;26.08;;;;;;;;;;5086250;28;20085;-73
2021/04/14 06:21:25;;;;;;;55.70;27.60;;;;;;;;;;5087277;28;20486;-71
2021/04/14 06:23:52;;;;;;;58.10;26.98;;;;;;;;;;5093950;28;20020;-72
2021/04/14 06:26:27;;;;;;;54.90;26.55;;;;;;;;;;5092061;28;20024;-72
2021/04/14 06:28:54;;;;;;;53.38;27.40;;;;;;;;;;5080190;28;20032;-72
2021/04/14 06:31:21;;;;;;;48.05;25.00;;;;;;;;;;5085132;28;20073;-72
2021/04/14 06:33:50;;;;;;;51.80;23.67;;;;;;;;;;5093757;28;20020;-71
2021/04/14 06:36:16;;;;;;;44.55;23.98;;;;;;;;;;5089584;28;20023;-73
2021/04/14 06:38:46;;;;;;;40.95;22.70;;;;;;;;;;5087918;28;20050;-72
2021/04/14 06:43:43;;;;;;;35.65;18.35;;;;;;;;;;5081058;28;20028;-71
2021/04/14 06:46:21;;;;;;;39.33;22.70;;;;;;;;;;5091933;28;20028;-73
2021/04/14 06:49:02;;;;;;;39.42;20.80;;;;;;;;;;5085700;28;20035;-73
2021/04/14 06:51:36;;;;;;;41.10;21.50;;;;;;;;;;5081396;28;20028;-73
2021/04/14 06:54:21;;;;;;;45.25;21.77;;;;;;;;;;5093175;28;20024;-73
2021/04/14 06:56:51;;;;;;;40.13;24.40;;;;;;;;;;5091330;28;20031;-72
2021/04/14 06:59:21;;;;;;;46.20;23.05;;;;;;;;;;5091524;28;20020;-73
2021/04/14 07:01:52;;;;;;;36.05;20.50;;;;;;;;;;5091124;28;20028;-71
2021/04/14 07:04:21;;;;;;;39.25;21.73;;;;;;;;;;5084445;28;20052;-74
2021/04/14 07:06:48;;;;;;;39.42;20.92;;;;;;;;;;5087610;28;20157;-72
2021/04/14 07:09:24;;;;;;;33.30;19.95;;;;;;;;;;5087035;28;20051;-73
2021/04/14 07:11:50;;;;;;;31.58;18.63;;;;;;;;;;5088686;28;20033;-75
2021/04/14 07:14:17;;;;;;;28.05;17.42;;;;;;;;;;5078650;28;20482;-73
2021/04/14 07:17:06;;;;;;;28.02;17.45;;;;;;;;;;5084769;28;20020;-72
2021/04/14 07:19:51;;;;;;;32.47;16.50;;;;;;;;;;5090907;28;20031;-71
2021/04/14 07:22:25;;;;;;;31.65;15.82;;;;;;;;;;5089534;28;20036;-73
2021/04/14 07:24:57;;;;;;;31.90;16.73;;;;;;;;;;5088802;28;20050;-74
2021/04/14 07:27:42;;;;;;;31.08;14.82;;;;;;;;;;5091171;28;20111;-72
2021/04/14 07:30:13;;;;;;;25.75;14.00;;;;;;;;;;5077982;28;20039;-72
2021/04/14 07:32:41;;;;;;;26.35;14.65;;;;;;;;;;5085345;28;20024;-75
2021/04/14 07:35:11;;;;;;;24.48;14.70;;;;;;;;;;5072521;28;20028;-75
2021/04/14 07:37:57;;;;;;;23.67;14.60;;;;;;;;;;5080221;28;20032;-74
2021/04/14 07:40:29;;;;;;;24.55;14.18;;;;;;;;;;5068828;28;20060;-74
2021/04/14 07:42:59;;;;;;;23.85;13.27;;;;;;;;;;5074922;28;20029;-72
2021/04/14 07:45:34;;;;;;;25.27;13.95;;;;;;;;;;5087267;28;20111;-73
2021/04/14 07:48:12;;;;;;;27.05;13.88;;;;;;;;;;5080461;28;20027;-74
2021/04/14 07:50:43;;;;;;;26.52;14.80;;;;;;;;;;5083985;28;20033;-73
2021/04/14 07:53:16;;;;;;;22.23;13.05;;;;;;;;;;5086279;28;20065;-73
2021/04/14 07:55:42;;;;;;;26.33;12.88;;;;;;;;;;5085692;28;20444;-78
2021/04/14 07:58:10;;;;;;;22.40;14.07;;;;;;;;;;5089687;28;20028;-74
2021/04/14 08:00:41;;;;;;;23.77;14.43;;;;;;;;;;5085488;28;20051;-74
2021/04/14 08:03:08;;;;;;;24.48;13.30;;;;;;;;;;5085346;28;20020;-75
2021/04/14 08:05:34;;;;;;;20.65;13.88;;;;;;;;;;5086946;28;20020;-79
2021/04/14 08:08:00;;;;;;;27.92;14.57;;;;;;;;;;5090930;28;20024;-76
2021/04/14 08:10:30;;;;;;;21.02;13.43;;;;;;;;;;5083150;28;20486;-75
2021/04/14 08:12:56;;;;;;;24.13;14.63;;;;;;;;;;5086035;28;20028;-73
2021/04/14 08:15:27;;;;;;;23.27;12.70;;;;;;;;;;5084721;28;20028;-75
2021/04/14 08:17:53;;;;;;;23.07;12.67;;;;;;;;;;5081884;28;20124;-77
2021/04/14 08:20:28;;;;;;;23.52;13.55;;;;;;;;;;5087893;28;20008;-76
2021/04/14 08:23:04;;;;;;;24.25;14.60;;;;;;;;;;5087825;28;20379;-75
2021/04/14 08:25:31;;;;;;;30.02;14.73;;;;;;;;;;5091178;28;20028;-78
2021/04/14 08:27:58;;;;;;;27.33;13.98;;;;;;;;;;5087989;28;20032;-77
2021/04/14 08:30:24;;;;;;;27.55;15.73;;;;;;;;;;5083862;28;20097;-76
2021/04/14 08:32:53;;;;;;;26.65;15.63;;;;;;;;;;5086068;28;20028;-77
2021/04/14 08:35:38;;;;;;;22.67;14.05;;;;;;;;;;5089974;28;20051;-78
2021/04/14 08:38:10;;;;;;;26.00;14.07;;;;;;;;;;5088039;28;20047;-76
2021/04/14 08:40:48;;;;;;;25.77;15.15;;;;;;;;;;5077104;28;20029;-77
2021/04/14 08:43:21;;;;;;;29.70;16.20;;;;;;;;;;5088763;28;20028;-77
2021/04/14 08:45:47;;;;;;;27.25;14.10;;;;;;;;;;5085367;28;20032;-77
2021/04/14 08:48:29;;;;;;;25.33;14.05;;;;;;;;;;5084999;28;20032;-73
2021/04/14 08:50:57;;;;;;;27.15;15.52;;;;;;;;;;5081251;28;20024;-77
2021/04/14 08:53:33;;;;;;;25.58;16.38;;;;;;;;;;5089737;28;20052;-74
2021/04/14 08:56:00;;;;;;;25.52;15.23;;;;;;;;;;5082754;28;20127;-75
2021/04/14 08:58:26;;;;;;;27.92;15.48;;;;;;;;;;5083659;28;20022;-72
2021/04/14 09:00:53;;;;;;;29.13;14.73;;;;;;;;;;5074704;28;20024;-76
2021/04/14 09:03:22;;;;;;;23.00;12.77;;;;;;;;;;5080242;28;20048;-74
2021/04/14 09:05:48;;;;;;;19.70;13.02;;;;;;;;;;5077020;28;20280;-74
2021/04/14 09:08:19;;;;;;;27.38;12.93;;;;;;;;;;5080321;28;20024;-73
2021/04/14 09:10:53;;;;;;;21.58;10.68;;;;;;;;;;5074715;28;20028;-74
2021/04/14 09:13:30;;;;;;;17.83;7.90;;;;;;;;;;5081261;28;20028;-73
2021/04/14 09:15:58;;;;;;;17.85;6.68;;;;;;;;;;5079865;28;20043;-74
2021/04/14 09:18:26;;;;;;;18.30;7.30;;;;;;;;;;5079296;28;20044;-73
2021/04/14 09:20:52;;;;;;;15.80;5.95;;;;;;;;;;5076054;28;20028;-73
2021/04/14 09:23:27;;;;;;;15.15;6.47;;;;;;;;;;5080417;28;20059;-78
2021/04/14 09:25:54;;;;;;;13.00;6.90;;;;;;;;;;5080612;28;20036;-72
2021/04/14 09:28:27;;;;;;;11.45;5.30;;;;;;;;;;5075719;28;20185;-74
2021/04/14 09:30:57;;;;;;;16.05;6.43;;;;;;;;;;5078211;28;20478;-73
2021/04/14 09:33:38;;;;;;;15.20;6.68;;;;;;;;;;5087258;28;20024;-75
2021/04/14 09:36:05;;;;;;;18.38;6.85;;;;;;;;;;5082665;28;20020;-77
2021/04/14 09:38:39;;;;;;;18.67;11.05;;;;;;;;;;5084402;28;20089;-77
2021/04/14 09:41:28;;;;;;;22.60;11.15;;;;;;;;;;5081582;28;20024;-77
2021/04/14 09:43:55;;;;;;;16.30;7.57;;;;;;;;;;5086704;28;20062;-74
2021/04/14 09:46:31;;;;;;;16.10;5.80;;;;;;;;;;5087327;28;20107;-78
2021/04/14 09:49:08;;;;;;;9.93;4.80;;;;;;;;;;5081741;28;20039;-76
2021/04/14 09:51:35;;;;;;;12.35;5.47;;;;;;;;;;5085748;28;20150;-77
2021/04/14 09:54:28;;;;;;;11.35;5.07;;;;;;;;;;5089393;28;20073;-76
2021/04/14 09:56:54;;;;;;;12.07;5.13;;;;;;;;;;5083213;28;20054;-77
2021/04/14 09:59:24;;;;;;;11.93;4.05;;;;;;;;;;5086413;28;20043;-73
2021/04/14 10:01:51;;;;;;;14.52;4.57;;;;;;;;;;5091043;28;20564;-78
2021/04/14 10:04:21;;;;;;;9.27;3.50;;;;;;;;;;5090983;28;20032;-78
2021/04/14 10:06:47;;;;;;;10.90;3.85;;;;;;;;;;5084716;28;20024;-79
2021/04/14 10:09:19;;;;;;;5.90;2.60;;;;;;;;;;5078681;28;20084;-78
2021/04/14 10:11:45;;;;;;;9.13;3.10;;;;;;;;;;5093022;28;20391;-75
2021/04/14 10:14:13;;;;;;;9.77;3.03;;;;;;;;;;5090375;28;20028;-77
2021/04/14 10:16:39;;;;;;;13.77;3.90;;;;;;;;;;5091865;28;20031;-78
2021/04/14 10:19:07;;;;;;;10.23;3.42;;;;;;;;;;5088626;28;20506;-77
2021/04/14 10:21:36;;;;;;;8.93;2.85;;;;;;;;;;5090855;28;20153;-76
2021/04/14 10:24:04;;;;;;;12.25;2.83;;;;;;;;;;5084869;28;20030;-75
2021/04/14 10:26:34;;;;;;;12.13;4.53;;;;;;;;;;5089244;28;20512;-81
2021/04/14 10:29:01;;;;;;;9.40;4.03;;;;;;;;;;5080348;28;20019;-77
2021/04/14 10:31:28;;;;;;;13.25;3.50;;;;;;;;;;5091033;28;20540;-74
2021/04/14 10:33:54;;;;;;;10.80;4.82;;;;;;;;;;5084954;28;20054;-81
2021/04/14 10:36:24;;;;;;;11.45;4.90;;;;;;;;;;5088300;28;20032;-80
2021/04/14 10:38:51;;;;;;;6.50;2.92;;;;;;;;;;5088423;28;20072;-81
2021/04/14 10:41:20;;;;;;;10.98;3.10;;;;;;;;;;5081362;28;20031;-77
2021/04/14 10:43:46;;;;;;;12.15;3.80;;;;;;;;;;5090282;28;20115;-77
2021/04/14 10:46:18;;;;;;;7.75;3.80;;;;;;;;;;5086271;28;20046;-75
2021/04/14 10:48:44;;;;;;;;;;;;;;;;;;5089808;28;20020;-78
2021/04/14 10:51:12;;;;;;;13.82;6.07;;;;;;;;;;5087459;28;20562;-77
2021/04/14 10:53:40;;;;;;;11.55;5.70;;;;;;;;;;5082315;28;20040;-77
2021/04/14 10:56:13;;;;;;;13.77;6.18;;;;;;;;;;5088620;28;20028;-78
2021/04/14 10:58:39;;;;;;;12.38;3.10;;;;;;;;;;5088518;28;20078;-80
2021/04/14 11:01:15;;;;;;;12.07;2.70;;;;;;;;;;5087910;28;20150;-79
2021/04/14 11:04:11;;;;;;;7.95;2.28;;;;;;;;;;5091117;28;20073;-77
2021/04/14 11:06:37;;;;;;;6.75;1.92;;;;;;;;;;5072238;28;20134;-78
2021/04/14 11:09:04;;;;;;;9.68;2.65;;;;;;;;;;5085435;28;20357;-73
2021/04/14 11:11:30;;;;;;;5.75;1.83;;;;;;;;;;5073108;28;20048;-77
2021/04/14 11:13:57;;;;;;;6.45;1.70;;;;;;;;;;5090579;28;20031;-76
2021/04/14 11:16:23;;;;;;;7.55;1.50;;;;;;;;;;5089985;28;20028;-76
2021/04/14 11:18:49;;;;;;;7.60;1.77;;;;;;;;;;5081914;28;20052;-79
2021/04/14 11:21:22;;;;;;;7.18;1.75;;;;;;;;;;5077387;28;20031;-77
2021/04/14 11:23:48;;;;;;;7.40;1.63;;;;;;;;;;5086227;28;20501;-81
2021/04/14 11:26:17;;;;;;;6.47;1.88;;;;;;;;;;5097393;28;20036;-83
2021/04/14 11:28:51;;;;;;;9.07;1.35;;;;;;;;;;5090500;28;20020;-78
2021/04/14 11:31:31;;;;;;;5.75;2.30;;;;;;;;;;5100376;28;20031;-80
2021/04/14 11:33:58;;;;;;;6.00;1.77;;;;;;;;;;5110571;28;20116;-76
2021/04/14 11:36:27;;;;;;;8.20;2.35;;;;;;;;;;5115536;28;20020;-77
2021/04/14 11:39:16;;;;;;;4.63;1.52;;;;;;;;;;5112811;28;20016;-79
2021/04/14 11:41:46;;;;;;;5.43;1.60;;;;;;;;;;5109920;28;20059;-79
2021/04/14 11:44:15;;;;;;;7.28;1.60;;;;;;;;;;5093021;28;20032;-82
2021/04/14 11:46:42;;;;;;;6.82;1.70;;;;;;;;;;5091418;28;20149;-82
2021/04/14 11:49:10;;;;;;;6.90;1.95;;;;;;;;;;5081424;28;20024;-79
2021/04/14 11:51:36;;;;;;;7.03;1.40;;;;;;;;;;5080310;28;20031;-80
2021/04/14 11:54:05;;;;;;;5.43;1.50;;;;;;;;;;5085393;28;21150;-82
2021/04/14 11:56:39;;;;;;;6.70;1.83;;;;;;;;;;5090375;28;20494;-80
2021/04/14 11:59:07;;;;;;;3.42;1.08;;;;;;;;;;5081502;28;20028;-76
2021/04/14 12:01:34;;;;;;;7.25;1.55;;;;;;;;;;5084248;28;20063;-77
2021/04/14 12:04:15;;;;;;;4.97;1.42;;;;;;;;;;5088829;28;20021;-79
2021/04/14 12:06:41;;;;;;;4.07;1.00;;;;;;;;;;5079819;28;20017;-79
2021/04/14 12:09:07;;;;;;;9.25;2.03;;;;;;;;;;5088449;28;20028;-83
2021/04/14 12:11:34;;;;;;;4.03;1.30;;;;;;;;;;5084751;28;20494;-76
2021/04/14 12:14:00;;;;;;;9.57;1.23;;;;;;;;;;5090169;28;20115;-78
2021/04/14 12:16:26;;;;;;;2.33;0.68;;;;;;;;;;5091564;28;20023;-77
2021/04/14 12:18:53;;;;;;;2.83;0.90;;;;;;;;;;5085803;28;20083;-77
2021/04/14 12:21:19;;;;;;;6.45;1.10;;;;;;;;;;5085566;28;20506;-81
2021/04/14 12:23:48;;;;;;;4.75;1.17;;;;;;;;;;5085448;28;20075;-84
2021/04/14 12:26:14;;;;;;;5.47;0.90;;;;;;;;;;5090071;28;20059;-81
2021/04/14 12:28:40;;;;;;;6.70;0.82;;;;;;;;;;5088718;28;20032;-78
2021/04/14 12:31:06;;;;;;;5.22;0.80;;;;;;;;;;5082050;28;20032;-85
2021/04/14 12:33:32;;;;;;;12.23;1.50;;;;;;;;;;5091561;28;20118;-79
2021/04/14 12:35:58;;;;;;;5.10;1.20;;;;;;;;;;5087379;28;20066;-85
2021/04/14 12:38:24;;;;;;;8.35;1.13;;;;;;;;;;5095023;28;20035;-81
2021/04/14 12:40:50;;;;;;;4.47;0.90;;;;;;;;;;5087905;28;20470;-79
2021/04/14 12:43:16;;;;;;;9.07;1.02;;;;;;;;;;5090633;28;20024;-77
2021/04/14 12:45:47;;;;;;;6.22;1.10;;;;;;;;;;5090717;28;20063;-76
2021/04/14 12:48:21;;;;;;;4.70;0.90;;;;;;;;;;5090098;28;20442;-79
2021/04/14 12:51:05;;;;;;;9.93;1.50;;;;;;;;;;5085844;28;20040;-77
2021/04/14 12:53:34;;;;;;;7.25;0.90;;;;;;;;;;5086761;28;20024;-81
2021/04/14 12:56:02;;;;;;;3.92;0.98;;;;;;;;;;5090557;28;20123;-79
2021/04/14 12:58:32;;;;;;;4.80;0.85;;;;;;;;;;5088471;28;20061;-79
2021/04/14 13:00:58;;;;;;;7.43;1.00;;;;;;;;;;5072634;28;20032;-79
2021/04/14 13:03:31;;;;;;;4.35;0.82;;;;;;;;;;5088958;28;20070;-79
2021/04/14 13:06:01;;;;;;;2.95;0.52;;;;;;;;;;5088603;28;20078;-78
2021/04/14 13:08:29;;;;;;;4.25;1.20;;;;;;;;;;5091004;28;20050;-78
2021/04/14 13:10:59;;;;;;;4.20;0.65;;;;;;;;;;5085843;28;20032;-82
2021/04/14 13:13:26;;;;;;;5.28;0.50;;;;;;;;;;5083557;28;20031;-77
2021/04/14 13:15:56;;;;;;;7.88;0.68;;;;;;;;;;5089224;28;20047;-79
2021/04/14 13:18:22;;;;;;;7.20;1.73;;;;;;;;;;5085399;28;20052;-77
2021/04/14 13:20:52;;;;;;;3.20;1.00;;;;;;;;;;5085913;28;20020;-79
2021/04/14 13:23:21;;;;;;;3.75;0.88;;;;;;;;;;5089951;28;20032;-76
2021/04/14 13:25:59;;;;;;;6.05;0.85;;;;;;;;;;5090407;28;20032;-78
2021/04/14 13:28:27;;;;;;;6.93;0.93;;;;;;;;;;5088326;28;20016;-79
2021/04/14 13:30:59;;;;;;;6.40;0.73;;;;;;;;;;5074018;28;20068;-80
2021/04/14 13:33:32;;;;;;;6.95;0.88;;;;;;;;;;5084179;28;20059;-78
2021/04/14 13:36:01;;;;;;;4.28;0.65;;;;;;;;;;5088506;28;20024;-81
2021/04/14 13:38:28;;;;;;;5.00;0.80;;;;;;;;;;5082835;28;20077;-78
2021/04/14 13:41:01;;;;;;;5.25;0.93;;;;;;;;;;5079748;28;20024;-80
2021/04/14 13:43:43;;;;;;;4.88;0.77;;;;;;;;;;5084162;28;20032;-79
2021/04/14 13:46:14;;;;;;;6.93;0.85;;;;;;;;;;5079150;28;20043;-78
2021/04/14 13:48:59;;;;;;;4.93;0.88;;;;;;;;;;5086310;28;20040;-77
2021/04/14 13:51:52;;;;;;;2.35;0.70;;;;;;;;;;5085662;28;20028;-76
2021/04/14 13:54:20;;;;;;;7.38;1.02;;;;;;;;;;5085937;28;20044;-78
2021/04/14 13:56:48;;;;;;;8.43;0.98;;;;;;;;;;5085639;28;20053;-77
2021/04/14 13:59:22;;;;;;;5.00;1.05;;;;;;;;;;5085330;28;20028;-76
2021/04/14 14:02:09;;;;;;;3.47;0.90;;;;;;;;;;5090224;28;20111;-77
2021/04/14 14:04:37;;;;;;;4.05;0.77;;;;;;;;;;5089941;28;20108;-78
2021/04/14 14:07:07;;;;;;;7.90;0.93;;;;;;;;;;5089913;28;20065;-77
2021/04/14 14:09:59;;;;;;;4.15;0.60;;;;;;;;;;5085989;28;20032;-77
2021/04/14 14:12:31;;;;;;;5.30;0.93;;;;;;;;;;5073091;28;20078;-79
2021/04/14 14:15:00;;;;;;;7.90;1.33;;;;;;;;;;5089770;28;20046;-80
2021/04/14 14:17:29;;;;;;;2.97;0.85;;;;;;;;;;5090859;28;20064;-75
2021/04/14 14:19:58;;;;;;;5.88;0.85;;;;;;;;;;5098219;28;20275;-77
2021/04/14 14:22:26;;;;;;;6.95;1.20;;;;;;;;;;5089832;28;20024;-76
2021/04/14 14:24:52;;;;;;;8.60;0.88;;;;;;;;;;5085476;28;20024;-79
2021/04/14 14:27:24;;;;;;;8.68;1.25;;;;;;;;;;5089734;28;20035;-75
2021/04/14 14:29:50;;;;;;;4.78;0.80;;;;;;;;;;5086762;28;20032;-78
2021/04/14 14:32:21;;;;;;;10.43;1.17;;;;;;;;;;5092041;28;20035;-76
2021/04/14 14:34:49;;;;;;;5.60;1.27;;;;;;;;;;5089443;28;20134;-75
2021/04/14 14:37:28;;;;;;;7.70;0.90;;;;;;;;;;5083287;28;20032;-74
2021/04/14 14:39:58;;;;;;;8.38;1.27;;;;;;;;;;5088188;28;20368;-78
2021/04/14 14:42:27;;;;;;;7.70;0.98;;;;;;;;;;5091950;28;20038;-76
2021/04/14 14:44:56;;;;;;;4.25;0.80;;;;;;;;;;5088969;28;20025;-78